Terminal Aerodrome Forecast
Issued by NWS Melbourne, FL

Home | Current Version | Previous Version | Text Only | Print | Product List | Glossary On
Versions: 1 2 3 4 5 6 7 8 9 10 11 12 13 14 15 16 17 18
327
FTUS42 KMLB 061808 AAA
TAFDAB
TAF AMD
KDAB 061808Z 0618/0718 30011KT P6SM SCT250
     FM062030 03014KT P6SM FEW060
     FM070300 26005KT P6SM SKC
     FM071400 30012KT P6SM FEW040=

USA.gov is the U.S. government's official web portal to all federal, state and local government web resources and services.